Time;durP1;ratioP1;P1;durP2;ratioP2;P2;SDS_P1;SDS_P2;PMS_P1;PMS_P2;Temp;Humidity;BMP_temperature;BMP_pressure;BME280_temperature;BME280_humidity;BME280_pressure;Samples;Min_cycle;Max_cycle;Signal;HPM_P1;HPM_P2
2021/06/04 00:00:35;;;;;;;1999.90;999.90;;;20.90;99.90;;;;;;4973168;28;20195;-70
2021/06/04 00:03:06;;;;;;;1999.90;999.90;;;20.80;99.90;;;;;;4973290;28;20171;-70
2021/06/04 00:05:34;;;;;;;1999.90;999.90;;;20.80;99.90;;;;;;4972866;28;20755;-70
2021/06/04 00:08:00;;;;;;;1999.90;999.90;;;20.70;99.90;;;;;;4973168;28;20385;-71
2021/06/04 00:10:32;;;;;;;1999.90;999.90;;;20.60;99.90;;;;;;4973056;28;20479;-70
2021/06/04 00:13:26;;;;;;;1999.90;999.90;;;20.60;99.90;;;;;;4973220;28;20250;-71
2021/06/04 00:15:57;;;;;;;1999.90;999.90;;;20.60;99.90;;;;;;4946162;28;20437;-70
2021/06/04 00:18:24;;;;;;;1999.90;999.90;;;20.60;99.90;;;;;;4973054;28;20444;-71
2021/06/04 00:20:50;;;;;;;1999.90;999.90;;;20.60;99.90;;;;;;4973049;28;20402;-70
2021/06/04 00:23:17;;;;;;;1999.90;999.90;;;20.60;99.90;;;;;;4973016;28;20413;-70
2021/06/04 00:25:43;;;;;;;1999.90;999.90;;;20.60;99.90;;;;;;4972576;28;20374;-70
2021/06/04 00:28:08;;;;;;;1999.90;999.90;;;20.70;99.90;;;;;;4973022;28;20417;-70
2021/06/04 00:30:34;;;;;;;1999.90;999.90;;;20.60;99.90;;;;;;4973058;28;20609;-70
2021/06/04 00:33:00;;;;;;;1999.90;999.90;;;20.60;99.90;;;;;;4973000;28;20669;-70
2021/06/04 00:35:26;;;;;;;1999.90;999.90;;;20.60;99.90;;;;;;4972550;28;20187;-70
2021/06/04 00:37:52;;;;;;;1999.90;999.90;;;20.60;99.90;;;;;;4972930;28;20542;-70
2021/06/04 00:40:25;;;;;;;1999.90;999.90;;;20.60;99.90;;;;;;4973089;28;20421;-70
2021/06/04 00:42:51;;;;;;;1999.90;999.90;;;20.60;99.90;;;;;;4973160;28;20801;-70
2021/06/04 00:45:23;;;;;;;1999.90;999.90;;;20.50;99.90;;;;;;4972581;28;20406;-70
2021/06/04 00:47:49;;;;;;;1999.90;999.90;;;20.60;99.90;;;;;;4974894;28;20415;-70
2021/06/04 00:50:21;;;;;;;1999.90;999.90;;;20.50;99.90;;;;;;4976447;28;20416;-70
2021/06/04 00:52:46;;;;;;;1999.90;999.90;;;20.60;99.90;;;;;;4976509;28;20172;-70
2021/06/04 00:55:19;;;;;;;1999.90;999.90;;;20.50;99.90;;;;;;4976063;28;20839;-70
2021/06/04 00:57:45;;;;;;;1999.90;999.90;;;20.40;99.90;;;;;;4976224;28;20256;-70
2021/06/04 01:00:22;;;;;;;1999.90;999.90;;;20.30;99.90;;;;;;4976385;28;20414;-70
2021/06/04 01:02:48;;;;;;;1999.90;999.90;;;20.30;99.90;;;;;;4976238;28;20409;-70
2021/06/04 01:05:15;;;;;;;1999.90;999.90;;;20.30;99.90;;;;;;4976038;28;21115;-69
2021/06/04 01:08:11;;;;;;;1999.90;999.90;;;20.30;99.90;;;;;;4976197;28;20419;-68
2021/06/04 01:10:47;;;;;;;1999.90;999.90;;;20.20;99.90;;;;;;4976156;28;20495;-70
2021/06/04 01:13:34;;;;;;;1999.90;999.90;;;20.20;99.90;;;;;;4976111;28;20477;-69
2021/06/04 01:16:09;;;;;;;1999.90;999.90;;;20.30;99.90;;;;;;4975846;28;20457;-69
2021/06/04 01:19:08;;;;;;;1999.90;999.90;;;20.30;99.90;;;;;;4976030;28;20923;-71
2021/06/04 01:22:02;;;;;;;1999.90;999.90;;;20.30;99.90;;;;;;4975967;28;20407;-70
2021/06/04 01:24:52;;;;;;;1999.90;999.90;;;20.30;99.90;;;;;;4973566;28;20473;-70
2021/06/04 01:27:33;;;;;;;1999.90;999.90;;;20.30;99.90;;;;;;4975646;28;20438;-70
2021/06/04 01:30:26;;;;;;;1999.90;999.90;;;20.30;99.90;;;;;;4975845;28;20387;-70
2021/06/04 01:32:58;;;;;;;1999.90;999.90;;;20.30;99.90;;;;;;4975775;28;20413;-70
2021/06/04 01:35:29;;;;;;;1999.90;999.90;;;20.20;99.90;;;;;;4975441;28;20408;-70
2021/06/04 01:37:56;;;;;;;1999.90;999.90;;;20.10;99.90;;;;;;4975564;28;20397;-70
2021/06/04 01:40:32;;;;;;;1999.90;999.90;;;20.00;99.90;;;;;;4975572;28;20413;-70
2021/06/04 01:43:01;;;;;;;1999.90;999.90;;;20.00;99.90;;;;;;4975499;28;20394;-70
2021/06/04 01:45:33;;;;;;;1999.90;999.90;;;20.00;99.90;;;;;;4975154;28;20406;-70
2021/06/04 01:48:06;;;;;;;1999.90;999.90;;;20.00;99.90;;;;;;4975447;28;20411;-69
2021/06/04 01:50:48;;;;;;;1999.90;999.90;;;20.10;99.90;;;;;;4975424;28;20766;-70
2021/06/04 01:53:21;;;;;;;1999.90;999.90;;;20.00;99.90;;;;;;4975352;28;20958;-71
2021/06/04 01:55:51;;;;;;;1999.90;999.90;;;19.90;99.90;;;;;;4975204;28;20434;-69
2021/06/04 01:58:50;;;;;;;1999.90;999.90;;;20.00;99.90;;;;;;4974879;28;20451;-69
2021/06/04 02:01:26;;;;;;;1999.90;999.90;;;20.00;99.90;;;;;;4969924;28;20467;-69
2021/06/04 02:03:52;;;;;;;1999.90;999.90;;;20.00;99.90;;;;;;4975063;28;20407;-70
2021/06/04 02:06:18;;;;;;;1999.90;999.90;;;20.00;99.90;;;;;;4975060;28;20472;-70
2021/06/04 02:08:50;;;;;;;1999.90;999.90;;;19.90;99.90;;;;;;4975154;28;20576;-70
2021/06/04 02:11:21;;;;;;;1999.90;999.90;;;19.70;99.90;;;;;;4974987;28;20577;-70
2021/06/04 02:13:49;;;;;;;1999.90;999.90;;;19.60;99.90;;;;;;4974803;28;20771;-70
2021/06/04 02:16:26;;;;;;;1999.90;999.90;;;19.50;99.90;;;;;;4974777;28;20582;-70
2021/06/04 02:19:05;;;;;;;1999.90;999.90;;;19.50;99.90;;;;;;4974835;28;20513;-70
2021/06/04 02:21:39;;;;;;;1999.90;999.90;;;19.40;99.90;;;;;;4974859;28;20405;-70
2021/06/04 02:24:24;;;;;;;1999.90;999.90;;;19.50;99.90;;;;;;4974613;28;20744;-70
2021/06/04 02:26:54;;;;;;;1999.90;999.90;;;19.40;99.90;;;;;;4974561;28;20448;-70
2021/06/04 02:29:23;;;;;;;1999.90;999.90;;;19.40;99.90;;;;;;4974677;28;20410;-69
2021/06/04 02:32:01;;;;;;;1999.90;999.90;;;19.40;99.90;;;;;;4974622;28;20406;-70
2021/06/04 02:34:32;;;;;;;1999.90;999.90;;;19.40;99.90;;;;;;4974288;28;20847;-71
2021/06/04 02:37:05;;;;;;;1999.90;999.90;;;19.40;99.90;;;;;;4974529;28;20472;-70
2021/06/04 02:39:40;;;;;;;1999.90;999.90;;;19.30;99.90;;;;;;4974421;28;20503;-70
2021/06/04 02:42:25;;;;;;;1999.90;999.90;;;19.20;99.90;;;;;;4974414;28;20381;-70
2021/06/04 02:44:59;;;;;;;1999.90;999.90;;;19.20;99.90;;;;;;4974156;28;20448;-70
2021/06/04 02:47:38;;;;;;;1999.90;999.90;;;19.10;99.90;;;;;;4974261;28;20937;-70
2021/06/04 02:50:13;;;;;;;1999.90;999.90;;;19.10;99.90;;;;;;4974330;28;20402;-70
2021/06/04 02:52:42;;;;;;;1999.90;999.90;;;19.00;99.90;;;;;;4974289;28;20384;-71
2021/06/04 02:55:28;;;;;;;1999.90;999.90;;;19.00;99.90;;;;;;4973888;28;20411;-71
2021/06/04 02:57:54;;;;;;;1999.90;999.90;;;19.00;99.90;;;;;;4974047;28;20411;-71
2021/06/04 03:00:28;;;;;;;1999.90;999.90;;;18.90;99.90;;;;;;4974080;28;20913;-70
2021/06/04 03:02:54;;;;;;;1999.90;999.90;;;18.90;99.90;;;;;;4974164;28;20645;-69
2021/06/04 03:05:25;;;;;;;1999.90;999.90;;;18.80;99.90;;;;;;4973836;28;20436;-69
2021/06/04 03:07:51;;;;;;;1999.90;999.90;;;18.80;99.90;;;;;;4973946;28;20478;-69
2021/06/04 03:10:33;;;;;;;1999.90;999.90;;;18.60;99.90;;;;;;4973368;28;20406;-69
2021/06/04 03:12:59;;;;;;;1999.90;999.90;;;18.50;99.90;;;;;;4973965;28;20394;-69
2021/06/04 03:15:31;;;;;;;1999.90;999.90;;;18.40;99.90;;;;;;4973600;28;20413;-69
2021/06/04 03:17:58;;;;;;;1999.90;999.90;;;18.40;99.90;;;;;;4973729;28;20478;-69
2021/06/04 03:20:35;;;;;;;1999.90;999.90;;;18.40;99.90;;;;;;4973830;28;20553;-69
2021/06/04 03:23:00;;;;;;;1999.90;999.90;;;18.40;99.90;;;;;;4973959;28;20789;-69
2021/06/04 03:25:34;;;;;;;1999.90;999.90;;;18.40;99.90;;;;;;4973404;28;20402;-68
2021/06/04 03:28:00;;;;;;;1999.90;999.90;;;18.40;99.90;;;;;;4974136;28;20184;-70
2021/06/04 03:30:30;;;;;;;1999.90;999.90;;;18.40;99.90;;;;;;4973587;28;20406;-70
2021/06/04 03:32:55;;;;;;;1999.90;999.90;;;18.40;99.90;;;;;;4973685;28;20398;-71
2021/06/04 03:35:22;;;;;;;1999.90;999.90;;;18.40;99.90;;;;;;4973330;28;20975;-70
2021/06/04 03:37:48;;;;;;;1999.90;999.90;;;18.40;99.90;;;;;;4973365;28;20192;-70
2021/06/04 03:40:17;;;;;;;1999.90;999.90;;;18.40;99.90;;;;;;4973523;28;20404;-70
2021/06/04 03:42:43;;;;;;;1999.90;999.90;;;18.40;99.90;;;;;;4973402;28;20427;-69
2021/06/04 03:45:13;;;;;;;1999.90;999.90;;;18.40;99.90;;;;;;4973129;28;20403;-68
2021/06/04 03:47:38;;;;;;;1999.90;999.90;;;18.50;99.90;;;;;;4973272;28;20787;-69
2021/06/04 03:50:07;;;;;;;1999.90;999.90;;;18.50;99.90;;;;;;4973391;28;20423;-68
2021/06/04 03:52:32;;;;;;;1999.90;999.90;;;18.50;99.90;;;;;;4973290;28;20189;-70
2021/06/04 03:54:59;;;;;;;1999.90;999.90;;;18.60;99.90;;;;;;4973080;28;20431;-69
2021/06/04 03:57:29;;;;;;;1999.90;999.90;;;18.60;99.90;;;;;;4973187;28;20190;-69
2021/06/04 03:59:55;;;;;;;1999.90;999.90;;;18.60;99.90;;;;;;4973179;28;20450;-69
2021/06/04 04:02:25;;;;;;;1999.90;999.90;;;18.60;99.90;;;;;;4973311;28;20416;-70
2021/06/04 04:04:55;;;;;;;1999.90;999.90;;;18.60;99.90;;;;;;4972928;28;20200;-68
2021/06/04 04:07:21;;;;;;;1999.90;999.90;;;18.60;99.90;;;;;;4973163;28;20425;-69
2021/06/04 04:09:47;;;;;;;1999.90;999.90;;;18.60;99.90;;;;;;4973078;28;20423;-69
2021/06/04 04:12:12;;;;;;;1999.90;999.90;;;18.50;99.90;;;;;;4973076;28;20764;-68
2021/06/04 04:14:38;;;;;;;1999.90;999.90;;;18.50;99.90;;;;;;4972789;28;20255;-69
2021/06/04 04:17:04;;;;;;;1999.90;999.90;;;18.50;99.90;;;;;;4973017;28;20560;-69
2021/06/04 04:19:30;;;;;;;1999.90;999.90;;;18.50;99.90;;;;;;4972981;28;20459;-69
2021/06/04 04:21:56;;;;;;;1999.90;999.90;;;18.50;99.90;;;;;;4975524;28;20172;-69
2021/06/04 04:24:27;;;;;;;1999.90;999.90;;;18.40;99.90;;;;;;4976674;28;20174;-69
2021/06/04 04:26:54;;;;;;;1999.90;999.90;;;18.40;99.90;;;;;;4976940;28;21109;-69
2021/06/04 04:29:19;;;;;;;1999.90;999.90;;;18.40;99.90;;;;;;4976887;28;20407;-69
2021/06/04 04:31:51;;;;;;;1999.90;999.90;;;18.50;99.90;;;;;;4976850;28;20463;-70
2021/06/04 04:34:18;;;;;;;1999.90;999.90;;;18.50;99.90;;;;;;4976565;28;20173;-69
2021/06/04 04:36:50;;;;;;;1999.90;999.90;;;18.50;99.90;;;;;;4976652;28;20525;-69
2021/06/04 04:39:22;;;;;;;1999.90;999.90;;;18.60;99.90;;;;;;4976542;28;20450;-70
2021/06/04 04:41:48;;;;;;;1999.90;999.90;;;18.70;99.90;;;;;;4976687;28;20409;-70
2021/06/04 04:44:16;;;;;;;1999.90;999.90;;;18.80;99.90;;;;;;4976340;28;20797;-69
2021/06/04 04:46:42;;;;;;;1999.90;999.90;;;18.80;99.90;;;;;;4976468;28;20919;-70
2021/06/04 04:49:07;;;;;;;1999.90;999.90;;;18.90;99.90;;;;;;4976522;28;20407;-71
2021/06/04 04:51:35;;;;;;;1999.90;999.90;;;18.90;99.90;;;;;;4976456;28;20549;-68
2021/06/04 04:54:02;;;;;;;1999.90;999.90;;;19.10;99.90;;;;;;4976095;28;20651;-69
2021/06/04 04:56:28;;;;;;;1999.90;999.90;;;19.10;99.90;;;;;;4976397;28;20929;-70
2021/06/04 04:58:53;;;;;;;1999.90;999.90;;;19.30;99.90;;;;;;4976318;28;20534;-70
2021/06/04 05:01:20;;;;;;;1999.90;999.90;;;19.40;99.90;;;;;;4976389;28;20166;-70
2021/06/04 05:03:46;;;;;;;1999.90;999.90;;;19.50;99.90;;;;;;4976053;28;20176;-70
2021/06/04 05:06:12;;;;;;;1999.90;999.90;;;19.60;99.90;;;;;;4976057;28;20431;-70
2021/06/04 05:08:37;;;;;;;1999.90;999.90;;;19.60;99.90;;;;;;4976046;28;20418;-70
2021/06/04 05:11:04;;;;;;;1999.90;999.90;;;19.60;99.90;;;;;;4976145;28;20179;-70
2021/06/04 05:13:31;;;;;;;1999.90;999.90;;;19.70;99.90;;;;;;4976091;28;20198;-70
2021/06/04 05:15:59;;;;;;;1999.90;999.90;;;19.60;99.90;;;;;;4975731;28;20441;-70
2021/06/04 05:18:25;;;;;;;1999.90;999.90;;;19.60;99.90;;;;;;4975916;28;20539;-70
2021/06/04 05:20:51;;;;;;;1999.90;999.90;;;19.60;99.90;;;;;;4975872;28;20959;-70
2021/06/04 05:23:17;;;;;;;1999.90;999.90;;;19.70;99.90;;;;;;4975860;28;20267;-70
2021/06/04 05:25:46;;;;;;;1999.90;999.90;;;19.70;99.90;;;;;;4975395;28;20414;-70
2021/06/04 05:28:13;;;;;;;1999.90;999.90;;;19.80;99.90;;;;;;4975843;28;20476;-70
2021/06/04 05:30:42;;;;;;;1999.90;999.90;;;19.90;99.90;;;;;;4975812;28;20417;-70
2021/06/04 05:33:10;;;;;;;1999.90;999.90;;;19.90;99.90;;;;;;4975179;28;20896;-70
2021/06/04 05:35:36;;;;;;;1999.90;999.90;;;20.00;99.90;;;;;;4975341;28;20488;-70
2021/06/04 05:38:02;;;;;;;1999.90;999.90;;;20.20;99.90;;;;;;4975513;28;20914;-70
2021/06/04 05:40:31;;;;;;;1999.90;999.90;;;20.30;99.90;;;;;;4975888;28;20549;-71
2021/06/04 05:42:57;;;;;;;1999.90;999.90;;;20.40;99.90;;;;;;4976024;28;20407;-71
2021/06/04 05:45:26;;;;;;;1999.90;999.90;;;20.50;99.90;;;;;;4975588;28;20449;-71
2021/06/04 05:47:52;;;;;;;1999.90;999.90;;;20.60;99.90;;;;;;4975487;28;20470;-72
2021/06/04 05:50:28;;;;;;;1999.90;999.90;;;20.60;99.90;;;;;;4975740;28;20490;-71
2021/06/04 05:52:53;;;;;;;1999.90;999.90;;;20.70;99.90;;;;;;4975648;28;20402;-71
2021/06/04 05:55:25;;;;;;;1999.90;999.90;;;20.80;99.90;;;;;;4975860;28;20415;-70
2021/06/04 05:57:52;;;;;;;1999.90;999.90;;;20.90;99.90;;;;;;4975103;28;20194;-70
2021/06/04 06:00:26;;;;;;;1999.90;999.90;;;21.00;99.90;;;;;;4975225;28;20419;-70
2021/06/04 06:02:51;;;;;;;1999.90;999.90;;;21.20;99.90;;;;;;4975372;28;20859;-70
2021/06/04 06:05:17;;;;;;;1999.90;999.90;;;21.30;99.90;;;;;;4974927;28;20554;-70
2021/06/04 06:07:43;;;;;;;1999.90;999.90;;;21.30;99.90;;;;;;4974990;28;20861;-70
2021/06/04 06:10:10;;;;;;;1999.90;999.90;;;21.40;99.90;;;;;;4975137;28;20397;-70
2021/06/04 06:12:36;;;;;;;1999.90;999.90;;;21.30;99.90;;;;;;4975039;28;20202;-70
2021/06/04 06:15:04;;;;;;;1999.90;999.90;;;21.30;99.90;;;;;;4974665;28;20779;-70
2021/06/04 06:17:29;;;;;;;1999.90;999.90;;;21.30;99.90;;;;;;4974853;28;20439;-69
2021/06/04 06:19:55;;;;;;;1999.90;999.90;;;21.40;99.90;;;;;;4974760;28;20835;-69
2021/06/04 06:22:20;;;;;;;1999.90;999.90;;;21.40;99.90;;;;;;4974846;28;20285;-69
2021/06/04 06:24:46;;;;;;;1999.90;999.90;;;21.50;99.90;;;;;;4974489;28;20183;-71
2021/06/04 06:27:11;;;;;;;1999.90;999.90;;;21.60;99.90;;;;;;4974584;28;20248;-69
2021/06/04 06:29:38;;;;;;;1999.90;999.90;;;21.60;99.90;;;;;;4974520;28;20641;-72
2021/06/04 06:32:06;;;;;;;1999.90;999.90;;;21.60;99.90;;;;;;4973373;28;20181;-69
2021/06/04 06:34:32;;;;;;;1999.90;999.90;;;21.70;99.90;;;;;;4974288;28;20394;-69
2021/06/04 06:36:58;;;;;;;1999.90;999.90;;;21.80;99.90;;;;;;4974387;28;20412;-69
2021/06/04 06:39:28;;;;;;;1999.90;999.90;;;21.80;99.90;;;;;;4974390;28;20427;-70
2021/06/04 06:41:55;;;;;;;1999.90;999.90;;;21.90;99.90;;;;;;4974406;28;20412;-70
2021/06/04 06:44:21;;;;;;;1999.90;999.90;;;22.00;99.90;;;;;;4973259;28;20421;-70
2021/06/04 06:46:47;;;;;;;1999.90;999.90;;;22.10;99.90;;;;;;4974229;28;20408;-70
2021/06/04 06:49:14;;;;;;;1999.90;999.90;;;22.30;99.90;;;;;;4974446;28;20760;-70
2021/06/04 06:51:40;;;;;;;1999.90;999.90;;;22.50;99.90;;;;;;4974241;28;20376;-70
2021/06/04 06:54:14;;;;;;;1999.90;999.90;;;22.60;99.90;;;;;;4973932;28;20408;-70
2021/06/04 06:56:40;;;;;;;1999.90;999.90;;;22.60;99.90;;;;;;4974102;28;20418;-70
2021/06/04 06:59:06;;;;;;;1999.90;999.90;;;22.50;99.90;;;;;;4974044;28;20450;-70
2021/06/04 07:01:32;;;;;;;1999.90;999.90;;;22.60;99.90;;;;;;4974085;28;20424;-70
2021/06/04 07:03:58;;;;;;;1999.90;999.90;;;22.70;99.90;;;;;;4973833;28;20200;-70
2021/06/04 07:06:28;;;;;;;1999.90;999.90;;;22.70;99.90;;;;;;4973962;28;20243;-70
2021/06/04 07:08:56;;;;;;;1999.90;999.90;;;22.80;99.90;;;;;;4973902;28;20428;-70
2021/06/04 07:11:23;;;;;;;1999.90;999.90;;;22.90;99.90;;;;;;4973938;28;20855;-70
2021/06/04 07:13:50;;;;;;;1999.90;999.90;;;23.10;99.90;;;;;;4973712;28;20596;-70
2021/06/04 07:16:17;;;;;;;1999.90;999.90;;;23.40;99.90;;;;;;4973746;28;20469;-70
2021/06/04 07:18:43;;;;;;;1999.90;999.90;;;23.70;99.90;;;;;;4973715;28;20431;-70
2021/06/04 07:21:11;;;;;;;1999.90;999.90;;;23.70;99.90;;;;;;4973738;28;20392;-69
2021/06/04 07:23:37;;;;;;;1999.90;999.90;;;23.90;99.90;;;;;;4973709;28;20423;-69
2021/06/04 07:26:04;;;;;;;1999.90;999.90;;;23.90;99.90;;;;;;4973186;28;20974;-69
2021/06/04 07:28:32;;;;;;;1999.90;999.90;;;23.90;99.90;;;;;;4973652;28;20598;-70
2021/06/04 07:31:04;;;;;;;1999.90;999.90;;;24.10;99.90;;;;;;4973586;28;20809;-69
2021/06/04 07:33:37;;;;;;;1999.90;999.90;;;24.00;99.90;;;;;;4973471;28;20456;-69
2021/06/04 07:36:08;;;;;;;1999.90;999.90;;;24.00;99.90;;;;;;4973077;28;20456;-69
2021/06/04 07:38:35;;;;;;;1999.90;999.90;;;24.10;99.90;;;;;;4973437;28;20427;-69
2021/06/04 07:41:01;;;;;;;1999.90;999.90;;;24.10;99.90;;;;;;4973322;28;20388;-69
2021/06/04 07:43:31;;;;;;;1999.90;999.90;;;24.10;99.90;;;;;;4973406;28;20405;-69
2021/06/04 07:45:58;;;;;;;1999.90;999.90;;;24.20;99.90;;;;;;4972794;28;20977;-69
2021/06/04 07:48:24;;;;;;;1999.90;999.90;;;24.10;99.90;;;;;;4973348;28;20416;-70
2021/06/04 07:50:54;;;;;;;1999.90;999.90;;;24.20;99.90;;;;;;4973155;28;20978;-70
2021/06/04 07:53:26;;;;;;;1999.90;999.90;;;24.40;99.90;;;;;;4973413;28;20391;-70
2021/06/04 07:55:52;;;;;;;1999.90;999.90;;;24.50;99.90;;;;;;4972733;28;20400;-70
2021/06/04 07:58:17;;;;;;;1999.90;999.90;;;24.50;99.90;;;;;;4973189;28;20465;-70
2021/06/04 08:00:43;;;;;;;1999.90;999.90;;;24.50;99.90;;;;;;4973182;28;20388;-70
2021/06/04 08:03:10;;;;;;;1999.90;999.90;;;24.60;99.90;;;;;;4973272;28;20174;-70
2021/06/04 08:05:37;;;;;;;1999.90;999.90;;;24.70;99.90;;;;;;4972757;28;20177;-70
2021/06/04 08:08:08;;;;;;;1999.90;999.90;;;24.60;99.90;;;;;;4973126;28;20384;-70
2021/06/04 08:10:35;;;;;;;1999.90;999.90;;;24.70;99.90;;;;;;4973120;28;20463;-70
2021/06/04 08:13:02;;;;;;;1999.90;999.90;;;24.80;99.90;;;;;;4973060;28;20880;-70
2021/06/04 08:15:34;;;;;;;1999.90;999.90;;;24.90;99.90;;;;;;4972784;28;20871;-69
2021/06/04 08:18:00;;;;;;;1999.90;999.90;;;24.90;99.90;;;;;;4972938;28;20417;-69
2021/06/04 08:20:29;;;;;;;1999.90;999.90;;;25.10;99.90;;;;;;4972984;28;20496;-69
2021/06/04 08:23:02;;;;;;;1999.90;999.90;;;25.30;99.90;;;;;;4972946;28;20426;-70
2021/06/04 08:25:34;;;;;;;1999.90;999.90;;;25.60;99.90;;;;;;4972692;28;20384;-69
2021/06/04 08:28:00;;;;;;;1999.90;999.90;;;25.70;99.90;;;;;;4972963;28;20479;-69
2021/06/04 08:30:27;;;;;;;1999.90;999.90;;;25.80;99.90;;;;;;4972829;28;20750;-69
2021/06/04 08:32:53;;;;;;;1999.90;999.90;;;26.10;99.90;;;;;;4972934;28;20413;-69
2021/06/04 08:35:21;;;;;;;1999.90;999.90;;;26.10;99.90;;;;;;4972585;28;20436;-69
2021/06/04 08:37:46;;;;;;;1999.90;999.90;;;26.30;99.90;;;;;;4972731;28;20397;-69
2021/06/04 08:40:22;;;;;;;1999.90;999.90;;;26.30;99.90;;;;;;4972731;28;20448;-68
2021/06/04 08:43:02;;;;;;;1999.90;999.90;;;26.00;99.90;;;;;;4972894;28;20187;-69
2021/06/04 08:45:39;;;;;;;1999.90;999.90;;;25.90;99.90;;;;;;4972794;28;21022;-69
2021/06/04 08:48:30;;;;;;;1999.90;999.90;;;25.70;99.90;;;;;;4972816;28;20899;-69
2021/06/04 08:51:02;;;;;;;1999.90;999.90;;;25.60;99.90;;;;;;4962276;28;20413;-70
2021/06/04 08:53:56;;;;;;;1999.90;999.90;;;25.60;99.90;;;;;;4972694;28;20397;-70
2021/06/04 08:56:48;;;;;;;1999.90;999.90;;;25.60;99.90;;;;;;4972709;28;20464;-70
2021/06/04 08:59:17;;;;;;;1999.90;999.90;;;25.90;99.90;;;;;;4973094;28;20420;-70
2021/06/04 09:01:54;;;;;;;1999.90;999.90;;;25.80;99.90;;;;;;4972743;28;20392;-70
2021/06/04 09:04:47;;;;;;;1999.90;999.90;;;25.50;99.90;;;;;;4972372;28;20963;-70
2021/06/04 09:07:32;;;;;;;1999.90;999.90;;;25.40;99.90;;;;;;4972598;28;20436;-70
2021/06/04 09:10:03;;;;;;;1999.90;999.90;;;25.20;99.90;;;;;;4976149;28;20391;-70
2021/06/04 09:12:42;;;;;;;1999.90;999.90;;;25.10;99.90;;;;;;4976096;28;20476;-71
2021/06/04 09:15:10;;;;;;;1999.90;999.90;;;25.40;99.90;;;;;;4975854;28;20413;-70
2021/06/04 09:18:00;;;;;;;1999.90;999.90;;;25.50;99.90;;;;;;4975825;28;20504;-70
2021/06/04 09:20:25;;;;;;;1999.90;999.90;;;25.50;99.90;;;;;;4975924;28;20504;-70
2021/06/04 09:22:58;;;;;;;1999.90;999.90;;;25.60;99.90;;;;;;4975920;28;20464;-70
2021/06/04 09:25:25;;;;;;;1999.90;999.90;;;25.70;99.90;;;;;;4975605;28;20194;-70
2021/06/04 09:28:32;;;;;;;1999.90;999.90;;;25.80;99.90;;;;;;5031489;23;20496;-66
2021/06/04 09:31:17;;;;;;;1999.90;999.90;;;26.00;99.90;;;;;;4954092;29;20412;-66
2021/06/04 09:33:49;;;;;;;1999.90;999.90;;;26.10;99.90;;;;;;4993753;28;20390;-71
2021/06/04 09:36:20;;;;;;;1999.90;999.90;;;26.10;99.90;;;;;;4994984;28;20420;-68
2021/06/04 09:39:26;;;;;;;1999.90;999.90;;;26.10;99.90;;;;;;4995053;28;20456;-67
2021/06/04 09:42:13;;;;;;;1999.90;999.90;;;26.20;99.90;;;;;;4994650;28;20482;-68
2021/06/04 09:44:49;;;;;;;1999.90;999.90;;;26.30;99.90;;;;;;4994797;28;20412;-67
2021/06/04 09:47:45;;;;;;;1999.90;999.90;;;26.40;99.90;;;;;;4994809;28;20813;-68
2021/06/04 09:50:19;;;;;;;1999.90;999.90;;;26.50;99.90;;;;;;4995041;28;20848;-67
2021/06/04 09:52:46;;;;;;;1999.90;999.90;;;26.60;99.90;;;;;;4994933;28;20455;-67
2021/06/04 09:55:19;;;;;;;1999.90;999.90;;;26.70;99.90;;;;;;4994550;28;20488;-67
2021/06/04 09:58:04;;;;;;;1999.90;999.90;;;26.90;99.90;;;;;;4994696;28;20403;-68
2021/06/04 10:00:35;;;;;;;1999.90;999.90;;;27.20;99.90;;;;;;4994715;28;20382;-67
2021/06/04 10:03:41;;;;;;;1999.90;999.90;;;27.70;99.90;;;;;;4994717;28;20490;-67
2021/06/04 10:06:07;;;;;;;1999.90;999.90;;;28.20;99.90;;;;;;4986712;28;20400;-67
2021/06/04 10:08:50;;;;;;;1999.90;999.90;;;28.60;99.90;;;;;;4994430;28;20937;-66
2021/06/04 10:11:21;;;;;;;1999.90;999.90;;;28.90;99.90;;;;;;4994430;28;20169;-67
2021/06/04 10:13:52;;;;;;;1999.90;999.90;;;29.20;99.90;;;;;;4993986;28;20404;-67
2021/06/04 10:19:31;;;;;;;1999.90;999.90;;;29.60;99.90;;;;;;4994478;28;20453;-67
2021/06/04 10:22:11;;;;;;;1999.90;999.90;;;30.00;99.90;;;;;;4994384;28;20405;-67
2021/06/04 10:24:59;;;;;;;1999.90;999.90;;;30.30;99.90;;;;;;4993963;28;20396;-67
2021/06/04 10:27:25;;;;;;;1999.90;999.90;;;30.30;99.90;;;;;;4990415;28;20449;-67
2021/06/04 10:30:11;;;;;;;1999.90;999.90;;;30.50;99.90;;;;;;4994163;28;21016;-67
2021/06/04 10:32:55;;;;;;;1999.90;999.90;;;30.60;99.90;;;;;;4994081;28;20185;-67
2021/06/04 10:35:23;;;;;;;1999.90;999.90;;;30.60;99.90;;;;;;4993611;28;20409;-68
2021/06/04 10:38:00;;;;;;;1999.90;999.90;;;30.60;99.90;;;;;;4993891;28;20439;-67
2021/06/04 10:40:45;;;;;;;1999.90;999.90;;;30.70;99.90;;;;;;4993938;28;20916;-67
2021/06/04 10:43:11;;;;;;;1999.90;999.90;;;30.60;99.90;;;;;;4993826;28;20405;-67
2021/06/04 10:45:46;;;;;;;1999.90;999.90;;;30.60;99.90;;;;;;4993542;28;20476;-67
2021/06/04 10:48:15;;;;;;;1999.90;999.90;;;30.80;99.90;;;;;;4993398;28;20694;-66
2021/06/04 10:50:59;;;;;;;1999.90;999.90;;;31.00;99.90;;;;;;4993784;28;20457;-67
2021/06/04 10:53:43;;;;;;;1999.90;999.90;;;31.10;99.90;;;;;;4993373;28;20397;-66
2021/06/04 10:56:23;;;;;;;1999.90;999.90;;;31.30;99.90;;;;;;4992853;28;20420;-66
2021/06/04 10:59:15;;;;;;;1999.90;999.90;;;31.60;99.90;;;;;;4991657;28;20462;-66
2021/06/04 11:01:49;;;;;;;1999.90;999.90;;;31.90;99.90;;;;;;4983472;28;20420;-66
2021/06/04 11:04:36;;;;;;;1999.90;999.90;;;31.90;99.90;;;;;;4989290;28;20949;-66
2021/06/04 11:07:18;;;;;;;1999.90;999.90;;;32.10;99.90;;;;;;4989427;28;20499;-66
2021/06/04 11:09:54;;;;;;;1999.90;999.90;;;32.30;99.90;;;;;;4988594;28;20539;-68
2021/06/04 11:12:41;;;;;;;1999.90;999.90;;;32.30;99.90;;;;;;4990517;28;20504;-66
2021/06/04 11:15:13;;;;;;;1999.90;999.90;;;32.20;99.90;;;;;;4990455;28;20496;-66
2021/06/04 11:17:48;;;;;;;1999.90;999.90;;;32.00;99.90;;;;;;4991092;28;20435;-68
2021/06/04 11:20:29;;;;;;;1999.90;999.90;;;32.00;99.90;;;;;;4989560;28;20464;-67
2021/06/04 11:23:36;;;;;;;1999.90;999.90;;;32.40;99.90;;;;;;4991145;28;20444;-68
2021/06/04 11:26:12;;;;;;;1999.90;999.90;;;32.60;99.90;;;;;;4970408;28;20435;-67
2021/06/04 11:29:06;;;;;;;1999.90;999.90;;;32.90;99.90;;;;;;4990849;28;20793;-69
2021/06/04 11:31:58;;;;;;;1999.90;999.90;;;33.10;99.90;;;;;;4990671;28;20459;-66
2021/06/04 11:34:42;;;;;;;1999.90;999.90;;;33.40;99.90;;;;;;4990258;28;20424;-65
2021/06/04 11:37:24;;;;;;;1999.90;999.90;;;33.50;99.90;;;;;;4990780;28;20450;-66
2021/06/04 11:39:54;;;;;;;1999.90;999.90;;;33.40;99.90;;;;;;4991076;28;20460;-65
2021/06/04 11:42:32;;;;;;;1999.90;999.90;;;33.10;99.90;;;;;;4990387;28;20413;-65
2021/06/04 11:45:01;;;;;;;1999.90;999.90;;;32.50;99.90;;;;;;4990267;28;20482;-65
2021/06/04 11:47:33;;;;;;;1999.90;999.90;;;32.20;99.90;;;;;;4990980;28;20809;-65
2021/06/04 11:49:59;;;;;;;1999.90;999.90;;;31.90;99.90;;;;;;4990492;28;20815;-65
2021/06/04 11:52:40;;;;;;;1999.90;999.90;;;31.60;99.90;;;;;;4990454;28;20419;-65
2021/06/04 11:55:19;;;;;;;1999.90;999.90;;;31.30;99.90;;;;;;4990660;28;20463;-65
2021/06/04 11:57:51;;;;;;;1999.90;999.90;;;31.30;99.90;;;;;;4990507;28;20432;-65
2021/06/04 12:00:48;;;;;;;1999.90;999.90;;;31.10;99.90;;;;;;4990769;28;20492;-65
2021/06/04 12:03:16;;;;;;;1999.90;999.90;;;31.10;99.90;;;;;;4991061;28;20412;-64
2021/06/04 12:05:43;;;;;;;1999.90;999.90;;;31.20;99.90;;;;;;4989903;28;20487;-66
2021/06/04 12:08:11;;;;;;;1999.90;999.90;;;31.10;99.90;;;;;;4990777;28;20425;-65
2021/06/04 12:10:49;;;;;;;1999.90;999.90;;;30.90;99.90;;;;;;4990637;28;20409;-65
2021/06/04 12:13:33;;;;;;;1999.90;999.90;;;30.60;99.90;;;;;;4990617;28;21134;-65
2021/06/04 12:19:04;;;;;;;1999.90;999.90;;;30.40;99.90;;;;;;4990359;28;20535;-65
2021/06/04 12:21:42;;;;;;;1999.90;999.90;;;30.20;99.90;;;;;;4990830;28;20411;-66
2021/06/04 12:24:08;;;;;;;1999.90;999.90;;;30.00;99.90;;;;;;4990659;28;20547;-65
2021/06/04 12:26:39;;;;;;;1999.90;999.90;;;29.80;99.90;;;;;;4989857;28;20441;-65
2021/06/04 12:29:23;;;;;;;1999.90;999.90;;;29.70;99.90;;;;;;4990757;28;20507;-66